sensor_id;sensor_type;location;lat;lon;timestamp;temperature;humidity
3310;DHT22;1667;53.238;10.394;2022-09-21T00:04:51;11.90;97.20
3310;DHT22;1667;53.238;10.394;2022-09-21T00:09:49;11.80;97.10
3310;DHT22;1667;53.238;10.394;2022-09-21T00:14:48;11.80;97.40
3310;DHT22;1667;53.238;10.394;2022-09-21T00:19:47;11.80;97.00
3310;DHT22;1667;53.238;10.394;2022-09-21T00:24:45;11.70;97.00
3310;DHT22;1667;53.238;10.394;2022-09-21T00:29:43;11.70;97.50
3310;DHT22;1667;53.238;10.394;2022-09-21T00:34:43;11.60;97.40
3310;DHT22;1667;53.238;10.394;2022-09-21T00:39:41;11.60;97.10
3310;DHT22;1667;53.238;10.394;2022-09-21T00:44:39;11.60;97.30
3310;DHT22;1667;53.238;10.394;2022-09-21T00:49:38;11.50;97.50
3310;DHT22;1667;53.238;10.394;2022-09-21T00:54:41;11.50;97.40
3310;DHT22;1667;53.238;10.394;2022-09-21T00:59:41;11.50;97.60
3310;DHT22;1667;53.238;10.394;2022-09-21T01:04:40;11.50;97.60
3310;DHT22;1667;53.238;10.394;2022-09-21T01:09:40;11.40;97.40
3310;DHT22;1667;53.238;10.394;2022-09-21T01:15:03;11.40;97.40
3310;DHT22;1667;53.238;10.394;2022-09-21T01:25:41;11.30;97.90
3310;DHT22;1667;53.238;10.394;2022-09-21T01:30:48;11.30;97.70
3310;DHT22;1667;53.238;10.394;2022-09-21T01:35:53;11.20;97.60
3310;DHT22;1667;53.238;10.394;2022-09-21T01:40:55;11.20;97.20
3310;DHT22;1667;53.238;10.394;2022-09-21T01:45:58;11.20;97.60
3310;DHT22;1667;53.238;10.394;2022-09-21T01:50:59;11.10;97.40
3310;DHT22;1667;53.238;10.394;2022-09-21T01:56:01;11.10;97.30
3310;DHT22;1667;53.238;10.394;2022-09-21T02:01:04;11.00;97.30
3310;DHT22;1667;53.238;10.394;2022-09-21T02:06:04;11.00;97.20
3310;DHT22;1667;53.238;10.394;2022-09-21T02:11:04;11.00;97.30
3310;DHT22;1667;53.238;10.394;2022-09-21T02:16:15;11.00;97.40
3310;DHT22;1667;53.238;10.394;2022-09-21T02:21:22;10.90;97.50
3310;DHT22;1667;53.238;10.394;2022-09-21T02:26:25;10.90;97.60
3310;DHT22;1667;53.238;10.394;2022-09-21T02:31:30;10.90;97.20
3310;DHT22;1667;53.238;10.394;2022-09-21T02:36:35;10.80;97.40
3310;DHT22;1667;53.238;10.394;2022-09-21T02:41:40;10.80;97.70
3310;DHT22;1667;53.238;10.394;2022-09-21T02:46:48;10.80;97.50
3310;DHT22;1667;53.238;10.394;2022-09-21T02:51:51;10.70;97.40
3310;DHT22;1667;53.238;10.394;2022-09-21T02:56:51;10.70;97.30
3310;DHT22;1667;53.238;10.394;2022-09-21T03:01:53;10.70;97.70
3310;DHT22;1667;53.238;10.394;2022-09-21T03:06:52;10.60;97.60
3310;DHT22;1667;53.238;10.394;2022-09-21T03:11:50;10.60;97.60
3310;DHT22;1667;53.238;10.394;2022-09-21T03:16:49;10.60;97.60
3310;DHT22;1667;53.238;10.394;2022-09-21T03:21:48;10.50;97.30
3310;DHT22;1667;53.238;10.394;2022-09-21T03:26:46;10.50;97.30
3310;DHT22;1667;53.238;10.394;2022-09-21T03:31:45;10.40;97.30
3310;DHT22;1667;53.238;10.394;2022-09-21T03:36:43;10.40;97.40
3310;DHT22;1667;53.238;10.394;2022-09-21T03:41:43;10.30;97.70
3310;DHT22;1667;53.238;10.394;2022-09-21T03:46:41;10.30;97.40
3310;DHT22;1667;53.238;10.394;2022-09-21T03:51:39;10.30;97.70
3310;DHT22;1667;53.238;10.394;2022-09-21T03:56:37;10.20;97.30
3310;DHT22;1667;53.238;10.394;2022-09-21T04:01:37;10.20;97.20
3310;DHT22;1667;53.238;10.394;2022-09-21T04:06:35;10.20;97.30
3310;DHT22;1667;53.238;10.394;2022-09-21T04:11:34;10.10;97.10
3310;DHT22;1667;53.238;10.394;2022-09-21T04:16:32;10.10;97.20
3310;DHT22;1667;53.238;10.394;2022-09-21T04:21:31;10.10;97.20
3310;DHT22;1667;53.238;10.394;2022-09-21T04:26:32;10.00;97.40
3310;DHT22;1667;53.238;10.394;2022-09-21T04:31:30;10.00;97.20
3310;DHT22;1667;53.238;10.394;2022-09-21T04:36:30;10.00;97.50
3310;DHT22;1667;53.238;10.394;2022-09-21T04:41:32;10.00;97.40
3310;DHT22;1667;53.238;10.394;2022-09-21T04:46:31;9.90;98.10
3310;DHT22;1667;53.238;10.394;2022-09-21T04:51:30;9.90;98.20
3310;DHT22;1667;53.238;10.394;2022-09-21T04:56:29;9.90;98.20
3310;DHT22;1667;53.238;10.394;2022-09-21T05:01:27;9.80;98.20
3310;DHT22;1667;53.238;10.394;2022-09-21T05:06:25;9.80;98.00
3310;DHT22;1667;53.238;10.394;2022-09-21T05:11:25;9.80;98.00
3310;DHT22;1667;53.238;10.394;2022-09-21T05:16:24;9.80;98.00
3310;DHT22;1667;53.238;10.394;2022-09-21T05:21:22;9.80;98.00
3310;DHT22;1667;53.238;10.394;2022-09-21T05:26:20;9.70;98.30
3310;DHT22;1667;53.238;10.394;2022-09-21T05:31:29;9.70;98.30
3310;DHT22;1667;53.238;10.394;2022-09-21T05:36:38;10.10;97.80
3310;DHT22;1667;53.238;10.394;2022-09-21T05:41:38;9.70;98.50
3310;DHT22;1667;53.238;10.394;2022-09-21T05:46:40;9.70;98.60
3310;DHT22;1667;53.238;10.394;2022-09-21T05:51:42;9.70;98.40
3310;DHT22;1667;53.238;10.394;2022-09-21T05:56:49;9.70;98.60
3310;DHT22;1667;53.238;10.394;2022-09-21T06:01:59;9.70;98.90
3310;DHT22;1667;53.238;10.394;2022-09-21T06:07:01;9.70;98.70
3310;DHT22;1667;53.238;10.394;2022-09-21T06:12:00;9.70;98.60
3310;DHT22;1667;53.238;10.394;2022-09-21T06:17:01;9.70;99.00
3310;DHT22;1667;53.238;10.394;2022-09-21T06:22:00;9.80;99.30
3310;DHT22;1667;53.238;10.394;2022-09-21T06:26:58;9.90;99.60
3310;DHT22;1667;53.238;10.394;2022-09-21T06:31:58;9.90;99.70
3310;DHT22;1667;53.238;10.394;2022-09-21T06:36:58;10.00;99.50
3310;DHT22;1667;53.238;10.394;2022-09-21T06:41:56;10.10;99.90
3310;DHT22;1667;53.238;10.394;2022-09-21T06:46:55;10.30;99.80
3310;DHT22;1667;53.238;10.394;2022-09-21T06:51:55;10.40;99.50
3310;DHT22;1667;53.238;10.394;2022-09-21T06:56:54;10.40;99.50
3310;DHT22;1667;53.238;10.394;2022-09-21T07:01:56;10.50;99.20
3310;DHT22;1667;53.238;10.394;2022-09-21T07:06:56;10.60;99.10
3310;DHT22;1667;53.238;10.394;2022-09-21T07:11:58;10.60;99.20
3310;DHT22;1667;53.238;10.394;2022-09-21T07:16:56;10.80;99.90
3310;DHT22;1667;53.238;10.394;2022-09-21T07:21:56;10.90;99.70
3310;DHT22;1667;53.238;10.394;2022-09-21T07:26:55;11.10;99.90
3310;DHT22;1667;53.238;10.394;2022-09-21T07:31:53;11.30;99.90
3310;DHT22;1667;53.238;10.394;2022-09-21T07:36:51;11.50;99.90
3310;DHT22;1667;53.238;10.394;2022-09-21T07:41:51;11.70;99.80
3310;DHT22;1667;53.238;10.394;2022-09-21T07:46:49;11.80;99.90
3310;DHT22;1667;53.238;10.394;2022-09-21T07:51:48;12.20;99.90
3310;DHT22;1667;53.238;10.394;2022-09-21T07:56:46;12.50;99.90
3310;DHT22;1667;53.238;10.394;2022-09-21T08:02:06;12.70;99.90
3310;DHT22;1667;53.238;10.394;2022-09-21T08:07:05;12.80;99.50
3310;DHT22;1667;53.238;10.394;2022-09-21T08:12:03;12.90;99.30
3310;DHT22;1667;53.238;10.394;2022-09-21T08:17:01;13.00;99.50
3310;DHT22;1667;53.238;10.394;2022-09-21T08:22:01;13.20;99.00
3310;DHT22;1667;53.238;10.394;2022-09-21T08:27:00;13.30;99.00
3310;DHT22;1667;53.238;10.394;2022-09-21T08:31:58;13.50;99.50
3310;DHT22;1667;53.238;10.394;2022-09-21T08:36:57;13.60;99.90
3310;DHT22;1667;53.238;10.394;2022-09-21T08:42:23;13.80;99.90
3310;DHT22;1667;53.238;10.394;2022-09-21T08:47:35;14.00;99.90
3310;DHT22;1667;53.238;10.394;2022-09-21T08:52:36;14.20;99.50
3310;DHT22;1667;53.238;10.394;2022-09-21T08:57:36;14.40;99.70
3310;DHT22;1667;53.238;10.394;2022-09-21T09:02:44;14.70;99.70
3310;DHT22;1667;53.238;10.394;2022-09-21T09:07:59;14.90;99.90
3310;DHT22;1667;53.238;10.394;2022-09-21T09:13:09;15.60;99.90
3310;DHT22;1667;53.238;10.394;2022-09-21T09:18:19;16.20;99.90
3310;DHT22;1667;53.238;10.394;2022-09-21T09:23:22;16.40;99.40
3310;DHT22;1667;53.238;10.394;2022-09-21T09:28:28;16.40;99.40
3310;DHT22;1667;53.238;10.394;2022-09-21T09:33:30;16.40;99.90
3310;DHT22;1667;53.238;10.394;2022-09-21T09:38:35;16.40;99.90
3310;DHT22;1667;53.238;10.394;2022-09-21T09:43:45;16.40;99.30
3310;DHT22;1667;53.238;10.394;2022-09-21T09:49:06;16.30;98.30
3310;DHT22;1667;53.238;10.394;2022-09-21T09:54:12;16.20;98.60
3310;DHT22;1667;53.238;10.394;2022-09-21T09:59:19;16.30;98.80
3310;DHT22;1667;53.238;10.394;2022-09-21T10:04:20;16.60;98.80
3310;DHT22;1667;53.238;10.394;2022-09-21T10:09:24;16.70;98.30
3310;DHT22;1667;53.238;10.394;2022-09-21T10:14:25;16.80;97.60
3310;DHT22;1667;53.238;10.394;2022-09-21T10:19:27;17.00;98.10
3310;DHT22;1667;53.238;10.394;2022-09-21T10:24:27;17.20;97.30
3310;DHT22;1667;53.238;10.394;2022-09-21T10:29:37;17.40;96.50
3310;DHT22;1667;53.238;10.394;2022-09-21T10:34:35;17.80;98.40
3310;DHT22;1667;53.238;10.394;2022-09-21T10:39:34;17.90;96.10
3310;DHT22;1667;53.238;10.394;2022-09-21T10:44:39;18.00;95.20
3310;DHT22;1667;53.238;10.394;2022-09-21T10:49:44;18.30;96.20
3310;DHT22;1667;53.238;10.394;2022-09-21T10:54:43;18.40;95.40
3310;DHT22;1667;53.238;10.394;2022-09-21T10:59:43;18.50;95.80
3310;DHT22;1667;53.238;10.394;2022-09-21T11:04:45;18.50;95.00
3310;DHT22;1667;53.238;10.394;2022-09-21T11:09:52;18.70;94.20
3310;DHT22;1667;53.238;10.394;2022-09-21T11:15:14;18.70;94.10
3310;DHT22;1667;53.238;10.394;2022-09-21T11:20:20;18.80;93.10
3310;DHT22;1667;53.238;10.394;2022-09-21T11:25:27;19.10;92.40
3310;DHT22;1667;53.238;10.394;2022-09-21T11:30:43;19.30;92.30
3310;DHT22;1667;53.238;10.394;2022-09-21T11:35:57;19.40;92.60
3310;DHT22;1667;53.238;10.394;2022-09-21T11:41:19;19.40;94.30
3310;DHT22;1667;53.238;10.394;2022-09-21T11:46:25;19.40;95.00
3310;DHT22;1667;53.238;10.394;2022-09-21T11:51:37;19.40;92.40
3310;DHT22;1667;53.238;10.394;2022-09-21T11:56:43;19.40;93.30
3310;DHT22;1667;53.238;10.394;2022-09-21T12:01:54;19.00;91.00
3310;DHT22;1667;53.238;10.394;2022-09-21T12:07:04;19.20;91.50
3310;DHT22;1667;53.238;10.394;2022-09-21T12:12:09;19.40;90.80
3310;DHT22;1667;53.238;10.394;2022-09-21T12:17:13;19.60;89.30
3310;DHT22;1667;53.238;10.394;2022-09-21T12:22:15;19.40;85.70
3310;DHT22;1667;53.238;10.394;2022-09-21T12:27:25;19.40;82.90
3310;DHT22;1667;53.238;10.394;2022-09-21T12:32:35;19.70;83.80
3310;DHT22;1667;53.238;10.394;2022-09-21T12:37:39;19.80;81.50
3310;DHT22;1667;53.238;10.394;2022-09-21T12:42:42;19.90;83.70
3310;DHT22;1667;53.238;10.394;2022-09-21T12:47:51;19.90;88.60
3310;DHT22;1667;53.238;10.394;2022-09-21T12:52:55;19.80;84.90
3310;DHT22;1667;53.238;10.394;2022-09-21T12:57:56;19.80;89.30
3310;DHT22;1667;53.238;10.394;2022-09-21T13:03:18;19.80;84.20
3310;DHT22;1667;53.238;10.394;2022-09-21T13:08:24;19.30;84.70
3310;DHT22;1667;53.238;10.394;2022-09-21T13:13:27;19.10;81.40
3310;DHT22;1667;53.238;10.394;2022-09-21T13:18:30;19.10;79.80
3310;DHT22;1667;53.238;10.394;2022-09-21T13:23:35;19.20;80.20
3310;DHT22;1667;53.238;10.394;2022-09-21T13:28:59;19.20;77.60
3310;DHT22;1667;53.238;10.394;2022-09-21T13:34:19;19.20;81.90
3310;DHT22;1667;53.238;10.394;2022-09-21T13:39:18;19.00;80.00
3310;DHT22;1667;53.238;10.394;2022-09-21T13:44:34;19.00;88.00
3310;DHT22;1667;53.238;10.394;2022-09-21T13:49:48;19.30;86.60
3310;DHT22;1667;53.238;10.394;2022-09-21T13:54:53;19.30;86.20
3310;DHT22;1667;53.238;10.394;2022-09-21T14:00:27;19.30;82.20
3310;DHT22;1667;53.238;10.394;2022-09-21T14:05:32;19.30;81.10
3310;DHT22;1667;53.238;10.394;2022-09-21T14:10:34;19.20;78.50
3310;DHT22;1667;53.238;10.394;2022-09-21T14:15:36;19.10;86.20
3310;DHT22;1667;53.238;10.394;2022-09-21T14:20:36;19.30;87.80
3310;DHT22;1667;53.238;10.394;2022-09-21T14:25:53;19.40;90.30
3310;DHT22;1667;53.238;10.394;2022-09-21T14:30:56;19.60;86.90
3310;DHT22;1667;53.238;10.394;2022-09-21T14:35:57;19.30;83.10
3310;DHT22;1667;53.238;10.394;2022-09-21T14:41:00;19.30;84.40
3310;DHT22;1667;53.238;10.394;2022-09-21T14:46:26;19.30;83.60
3310;DHT22;1667;53.238;10.394;2022-09-21T14:51:35;19.20;85.70
3310;DHT22;1667;53.238;10.394;2022-09-21T14:56:46;19.40;85.20
3310;DHT22;1667;53.238;10.394;2022-09-21T15:01:58;19.30;80.10
3310;DHT22;1667;53.238;10.394;2022-09-21T15:07:10;19.20;82.00
3310;DHT22;1667;53.238;10.394;2022-09-21T15:12:37;19.20;84.30
3310;DHT22;1667;53.238;10.394;2022-09-21T15:17:50;19.30;89.20
3310;DHT22;1667;53.238;10.394;2022-09-21T15:22:57;19.30;83.60
3310;DHT22;1667;53.238;10.394;2022-09-21T15:27:55;19.10;82.20
3310;DHT22;1667;53.238;10.394;2022-09-21T15:32:56;19.00;84.30
3310;DHT22;1667;53.238;10.394;2022-09-21T15:37:57;19.10;86.40
3310;DHT22;1667;53.238;10.394;2022-09-21T15:42:59;19.10;85.20
3310;DHT22;1667;53.238;10.394;2022-09-21T15:47:57;19.20;87.30
3310;DHT22;1667;53.238;10.394;2022-09-21T15:53:01;19.20;85.00
3310;DHT22;1667;53.238;10.394;2022-09-21T15:58:00;18.90;85.30
3310;DHT22;1667;53.238;10.394;2022-09-21T16:03:03;18.90;84.70
3310;DHT22;1667;53.238;10.394;2022-09-21T16:08:06;18.70;84.20
3310;DHT22;1667;53.238;10.394;2022-09-21T16:13:11;18.70;86.50
3310;DHT22;1667;53.238;10.394;2022-09-21T16:18:38;18.60;87.40
3310;DHT22;1667;53.238;10.394;2022-09-21T16:23:40;18.60;87.30
3310;DHT22;1667;53.238;10.394;2022-09-21T16:28:40;18.60;87.00
3310;DHT22;1667;53.238;10.394;2022-09-21T16:33:42;18.60;87.50
3310;DHT22;1667;53.238;10.394;2022-09-21T16:38:55;18.50;87.30
3310;DHT22;1667;53.238;10.394;2022-09-21T16:43:54;18.50;87.40
3310;DHT22;1667;53.238;10.394;2022-09-21T16:48:53;18.40;87.60
3310;DHT22;1667;53.238;10.394;2022-09-21T16:53:51;18.30;88.80
3310;DHT22;1667;53.238;10.394;2022-09-21T16:58:51;18.20;88.90
3310;DHT22;1667;53.238;10.394;2022-09-21T17:03:49;18.20;89.00
3310;DHT22;1667;53.238;10.394;2022-09-21T17:08:48;18.10;90.20
3310;DHT22;1667;53.238;10.394;2022-09-21T17:13:47;18.00;89.60
3310;DHT22;1667;53.238;10.394;2022-09-21T17:18:47;18.00;90.00
3310;DHT22;1667;53.238;10.394;2022-09-21T17:23:45;17.90;89.80
3310;DHT22;1667;53.238;10.394;2022-09-21T17:28:44;17.80;90.10
3310;DHT22;1667;53.238;10.394;2022-09-21T17:33:43;17.70;90.00
3310;DHT22;1667;53.238;10.394;2022-09-21T17:38:44;17.60;90.30
3310;DHT22;1667;53.238;10.394;2022-09-21T17:43:48;17.50;90.60
3310;DHT22;1667;53.238;10.394;2022-09-21T17:48:48;17.40;90.60
3310;DHT22;1667;53.238;10.394;2022-09-21T17:53:48;17.30;91.10
3310;DHT22;1667;53.238;10.394;2022-09-21T17:58:50;17.20;91.20
3310;DHT22;1667;53.238;10.394;2022-09-21T18:03:54;17.00;91.50
3310;DHT22;1667;53.238;10.394;2022-09-21T18:08:55;16.90;91.80
3310;DHT22;1667;53.238;10.394;2022-09-21T18:14:02;16.80;92.10
3310;DHT22;1667;53.238;10.394;2022-09-21T18:19:18;16.70;92.30
3310;DHT22;1667;53.238;10.394;2022-09-21T18:24:24;16.60;92.50
3310;DHT22;1667;53.238;10.394;2022-09-21T18:29:29;16.50;92.70
3310;DHT22;1667;53.238;10.394;2022-09-21T18:34:54;16.40;92.90
3310;DHT22;1667;53.238;10.394;2022-09-21T18:39:59;16.30;93.40
3310;DHT22;1667;53.238;10.394;2022-09-21T18:45:02;16.30;93.50
3310;DHT22;1667;53.238;10.394;2022-09-21T18:50:06;16.10;93.40
3310;DHT22;1667;53.238;10.394;2022-09-21T18:55:15;16.10;93.60
3310;DHT22;1667;53.238;10.394;2022-09-21T19:00:15;16.00;93.80
3310;DHT22;1667;53.238;10.394;2022-09-21T19:05:14;15.90;93.80
3310;DHT22;1667;53.238;10.394;2022-09-21T19:10:20;15.80;94.00
3310;DHT22;1667;53.238;10.394;2022-09-21T19:15:23;15.80;94.20
3310;DHT22;1667;53.238;10.394;2022-09-21T19:20:55;15.70;94.10
3310;DHT22;1667;53.238;10.394;2022-09-21T19:26:01;15.60;94.40
3310;DHT22;1667;53.238;10.394;2022-09-21T19:31:06;15.50;94.50
3310;DHT22;1667;53.238;10.394;2022-09-21T19:36:07;15.40;94.50
3310;DHT22;1667;53.238;10.394;2022-09-21T19:41:30;15.30;94.70
3310;DHT22;1667;53.238;10.394;2022-09-21T19:46:36;15.30;95.30
3310;DHT22;1667;53.238;10.394;2022-09-21T19:51:42;15.20;94.90
3310;DHT22;1667;53.238;10.394;2022-09-21T19:56:47;15.20;95.10
3310;DHT22;1667;53.238;10.394;2022-09-21T20:02:02;15.10;95.10
3310;DHT22;1667;53.238;10.394;2022-09-21T20:07:06;15.00;94.90
3310;DHT22;1667;53.238;10.394;2022-09-21T20:12:14;15.00;95.40
3310;DHT22;1667;53.238;10.394;2022-09-21T20:17:18;14.90;96.00
3310;DHT22;1667;53.238;10.394;2022-09-21T20:22:25;14.90;96.00
3310;DHT22;1667;53.238;10.394;2022-09-21T20:27:30;14.90;96.00
3310;DHT22;1667;53.238;10.394;2022-09-21T20:32:32;14.90;96.10
3310;DHT22;1667;53.238;10.394;2022-09-21T20:37:31;14.90;96.10
3310;DHT22;1667;53.238;10.394;2022-09-21T20:42:30;14.80;96.10
3310;DHT22;1667;53.238;10.394;2022-09-21T20:47:30;14.80;95.90
3310;DHT22;1667;53.238;10.394;2022-09-21T20:52:28;14.70;96.00
3310;DHT22;1667;53.238;10.394;2022-09-21T20:57:26;14.70;96.40
3310;DHT22;1667;53.238;10.394;2022-09-21T21:02:26;14.60;96.00
3310;DHT22;1667;53.238;10.394;2022-09-21T21:07:25;14.60;96.10
3310;DHT22;1667;53.238;10.394;2022-09-21T21:12:27;14.50;96.00
3310;DHT22;1667;53.238;10.394;2022-09-21T21:17:26;14.50;96.10
3310;DHT22;1667;53.238;10.394;2022-09-21T21:22:24;14.40;96.20
3310;DHT22;1667;53.238;10.394;2022-09-21T21:27:23;14.30;96.30
3310;DHT22;1667;53.238;10.394;2022-09-21T21:32:24;14.10;95.70
3310;DHT22;1667;53.238;10.394;2022-09-21T21:37:24;14.00;96.50
3310;DHT22;1667;53.238;10.394;2022-09-21T21:42:23;14.00;96.50
3310;DHT22;1667;53.238;10.394;2022-09-21T21:47:25;14.00;96.40
3310;DHT22;1667;53.238;10.394;2022-09-21T21:52:41;13.90;96.30
3310;DHT22;1667;53.238;10.394;2022-09-21T21:57:41;13.90;96.40
3310;DHT22;1667;53.238;10.394;2022-09-21T22:02:39;13.80;96.30
3310;DHT22;1667;53.238;10.394;2022-09-21T22:07:38;13.80;96.30
3310;DHT22;1667;53.238;10.394;2022-09-21T22:12:38;13.70;96.20
3310;DHT22;1667;53.238;10.394;2022-09-21T22:17:36;13.70;96.20
3310;DHT22;1667;53.238;10.394;2022-09-21T22:22:34;13.60;96.10
3310;DHT22;1667;53.238;10.394;2022-09-21T22:27:33;13.60;96.00
3310;DHT22;1667;53.238;10.394;2022-09-21T22:32:32;13.50;95.80
3310;DHT22;1667;53.238;10.394;2022-09-21T22:37:31;13.50;95.70
3310;DHT22;1667;53.238;10.394;2022-09-21T22:42:29;13.40;95.80
3310;DHT22;1667;53.238;10.394;2022-09-21T22:47:27;13.40;96.10
3310;DHT22;1667;53.238;10.394;2022-09-21T22:52:27;13.30;95.90
3310;DHT22;1667;53.238;10.394;2022-09-21T22:57:25;13.30;96.30
3310;DHT22;1667;53.238;10.394;2022-09-21T23:02:23;13.20;96.30
3310;DHT22;1667;53.238;10.394;2022-09-21T23:07:22;13.20;96.30
3310;DHT22;1667;53.238;10.394;2022-09-21T23:12:21;13.10;95.90
3310;DHT22;1667;53.238;10.394;2022-09-21T23:17:20;13.10;96.00
3310;DHT22;1667;53.238;10.394;2022-09-21T23:22:18;13.00;96.10
3310;DHT22;1667;53.238;10.394;2022-09-21T23:27:16;13.00;96.30
3310;DHT22;1667;53.238;10.394;2022-09-21T23:32:16;13.00;96.00
3310;DHT22;1667;53.238;10.394;2022-09-21T23:37:14;12.90;95.90
3310;DHT22;1667;53.238;10.394;2022-09-21T23:42:12;12.80;95.80
3310;DHT22;1667;53.238;10.394;2022-09-21T23:47:10;12.80;95.80
3310;DHT22;1667;53.238;10.394;2022-09-21T23:52:10;12.70;95.80
3310;DHT22;1667;53.238;10.394;2022-09-21T23:57:08;12.70;96.00
